Tiempo atmosférico en la estación meteorológica de Pontevedra, Pontevedra (108 m.)



Fecha
DESCASC
Temp. máxima en grados centígrados (hora)
DESCASC
Temp. mínima en grados centígrados (hora)
DESCASC
Temp. media en grados centígrados
DESCASC
Racha de viento máxima en m/sg (hora)
DESCASC
Velocidad máxima media en intervalos de 10 minutos(hora)
DESCASC
Precipitaciones diarias en mm
DESCASC
Precipitaciones de 00:00 a 06:00 en mm
DESCASC
Precipitaciones de 06:00 a 12:00 en mm
DESCASC
Precipitaciones de 12:00 a 18:00 en mm
DESCASC
Precipitaciones de 18:00 a 24:00 en mm
DESCASC
20-09-2020 20.3 (12:10) 16.2 (23:59) 18.3 7.5 (15:00) 4.17 (15:20) 0 0 0 0 0
19-09-2020 22.5 (17:40) 16.7 (09:00) 19.6 6.11 (16:30) 2.78 (14:00) 1 0 0.4 0.6 0
17-09-2020 26.3 (15:30) 16 (00:00) 21.1 9.44 (16:50) 4.17 (16:50) 7.6 0 0.2 4.4 3
16-09-2020 27.2 (16:00) 14.1 (08:40) 20.7 6.39 (19:30) 3.33 (07:30) 0 0 0 0 0
15-09-2020 24.9 (13:50) 16.2 (00:00) 20.6 9.44 (12:50) 4.17 (12:50) 0 0 0 0 0
14-09-2020 23.7 (16:30) 17.4 (00:00) 20.6 8.61 (17:40) 3.89 (17:40) 0.6 0.4 0.2 0 0
13-09-2020 30.5 (14:40) 21.5 (00:00) 26 8.89 (15:00) 3.61 (15:00) 0 0 0 0 0
12-09-2020 35.5 (16:30) 16.7 (06:40) 26.1 5.28 (18:10) 3.61 (18:10) 0 0 0 0 0
11-09-2020 28.5 (15:40) 16.7 (00:00) 22.6 5 (04:30) 3.33 (04:30) 0 0 0 0 0
10-09-2020 28.5 (14:00) 15.4 (00:00) 21.9 5.83 (18:20) 3.33 (00:30) 0 0 0 0 0
09-09-2020 30.3 (15:10) 15.9 (08:40) 23.1 7.22 (05:30) 4.44 (05:30) 0 0 0 0 0
08-09-2020 30.4 (16:20) 16 (00:00) 23.2 6.11 (17:10) 3.61 (17:10) 0 0 0 0 0
07-09-2020 30.2 (16:50) 15.1 (05:00) 22.7 8.33 (01:00) 3.89 (01:00) 0 0 0 0 0
06-09-2020 27.7 (17:10) 17.3 (00:00) 22.5 11.67 (10:00) 5.83 (16:10) 0 0 0 0 0
05-09-2020 28.3 (16:50) 16.3 (00:00) 22.3 12.78 (21:50) 5 (21:50) 0 0 0 0 0
04-09-2020 26.7 (13:10) 16.9 (00:00) 21.8 6.94 (17:00) 4.17 (03:20) 0 0 0 0 0
03-09-2020 31 (16:10) 14.9 (00:00) 22.9 5 (23:30) 3.33 (23:30) 0 0 0 0 0
02-09-2020 28.7 (18:20) 12.8 (00:00) 20.8 6.94 (15:50) 4.44 (15:50) 0 0 0 0 0
01-09-2020 26.3 (17:50) 12.3 (00:00) 19.3 8.89 (14:40) 5.28 (15:50) 0 0 0 0 0
31-08-2020 23.4 (17:10) 10.8 (00:00) 17.1 6.67 (14:40) 3.33 (14:40) 0 0 0 0 0
30-08-2020 23.3 (17:00) 10.9 (00:00) 17.1 9.72 (14:40) 5 (17:30) 0 0 0 0 0
29-08-2020 22.1 (15:50) 12.8 (00:00) 17.5 11.11 (16:00) 6.67 (16:10) 0.2 0 0 0.2 0
28-08-2020 22.3 (17:20) 13.7 (00:00) 18 11.11 (19:00) 6.94 (17:40) 0 0 0 0 0
27-08-2020 23.7 (16:20) 19.2 (00:00) 21.5 6.67 (17:20) 3.89 (15:00) 1 0 0.2 0 0.8
26-08-2020 26.8 (14:50) 17.5 (00:00) 22.1 6.39 (15:00) 3.61 (15:00) 0 0 0 0 0
25-08-2020 26.2 (15:50) 13.1 (00:00) 19.7 6.39 (16:40) 3.61 (19:40) 0 0 0 0 0
24-08-2020 29 (15:40) 13.9 (08:30) 21.4 5.83 (17:10) 3.33 (16:40) 0 0 0 0 0
23-08-2020 27.5 (19:50) 14 (00:00) 20.8 7.22 (20:00) 3.89 (19:50) 0 0 0 0 0

Gráficas

Temp. máximas Temp. mínimas Temp. medias Precipitaciones Rachas de viento máximas Velocidades máximas media en intervalos de 10 minutos

Datos horarios

Fecha y hora oficial Temperatura (ºC) Velocidad del viento (km/h) Dirección del viento Racha (km/h) Dirección de racha Precipitación (mm) Presión (hPa) Tendencia (hPa) Humedad (%)
2020-09-21 23:00:00 16.1 5 Este 6 Este 0 1005.3 0.4 89
2020-09-21 22:00:00 16.7 3 Sudeste 8 Sur 0 1005.1 0.3 88
2020-09-21 21:00:00 17.5 2 Sur 15 Sudoeste 0 1004.8 0 84
2020-09-21 20:00:00 19.4 6 Sudoeste 16 Sudoeste 0 1004.9 0 75
2020-09-21 19:00:00 20.9 8 Sudoeste 24 Sudoeste 0 1004.8 -0.2 67
2020-09-21 18:00:00 21.7 7 Sur 27 Sudoeste 0 1004.8 -0.6 66
2020-09-21 17:00:00 21.5 10 Sudoeste 27 Sudoeste 0 1004.9 -0.6 67
2020-09-21 16:00:00 21.1 16 Sudoeste 28 Sudoeste 0 1005 -0.8 67
2020-09-21 15:00:00 21.8 9 Sudoeste 23 Sudoeste 0 1005.4 -0.6 68
2020-09-21 14:00:00 21.6 9 Oeste 17 Sudoeste 0 1005.5 -0.5 67
2020-09-21 13:00:00 20.9 7 Sudoeste 14 Sudoeste 0 1005.8 0 69
2020-09-21 12:00:00 18.9 5 Sudoeste 11 Noroeste 0 1006 0.2 80
2020-09-21 11:00:00 15.5 4 Noroeste 8 Nordeste 0 1006 -- 90
2020-09-21 10:00:00 14.5 5 Nordeste 15 Nordeste 0 1005.8 -- 94
2020-09-21 09:00:00 12.8 5 Nordeste 16 Nordeste 0 1005.8 -- 94
2020-09-21 08:00:00 13.2 0 Calma 12 Nordeste 0 1005.3 -- 94
2020-09-21 07:00:00 13.6 9 Nordeste 13 Nordeste 0 1005 -- 95
2020-09-21 06:00:00 13.6 6 Este 12 Este 0 1004.9 -- 95
2020-09-21 05:00:00 13.9 8 Este 14 Nordeste 0 1004.9 -- 95
2020-09-21 04:00:00 14.8 5 Nordeste 8 Nordeste 0 1005.1 -- 94
2020-09-21 03:00:00 15.7 5 Nordeste 9 Nordeste 0 1005.5 -- 93
2020-09-21 02:00:00 15.9 5 Sudeste 8 Este 0 1005.7 -- 92
2020-09-21 01:00:00 16.4 3 Nordeste 5 Nordeste 0 1005.7 -- 92
2020-09-21 00:00:00 16.3 0 Calma 5 Sur 0 1006 -- 91
2020-09-20 23:00:00 17.2 4 Sur 8 Sudeste 0 1006.1 -- 90
2020-09-20 22:00:00 17.5 2 Sur 12 Sudoeste 0 1005.9 -- 92
2020-09-20 21:00:00 17.6 5 Sudoeste 13 Sudoeste 0 1005.1 -- 91
2020-09-20 20:00:00 17.7 8 Sudoeste 20 Sudoeste 0 1004.9 -- 91
2020-09-20 19:00:00 18.2 4 Sur 22 Sudoeste 0 1004.6 -- 89
2020-09-20 18:00:00 18.6 7 Sudoeste 26 Sudoeste 0 1004.4 -- 85
2020-09-20 17:00:00 20 13 Sudoeste 26 Sudoeste 0 1003.9 -- 81
2020-09-20 16:00:00 19.6 8 Sur 26 Sudoeste 0 1003.9 -- 83
2020-09-20 15:00:00 19.9 13 Sudoeste 27 Sudoeste 0 1003.9 -- 87
2020-09-20 14:00:00 19.8 8 Sudoeste 18 Sudoeste 0 1003.8 -- 87
2020-09-20 13:00:00 19.6 8 Sudoeste 14 Oeste 0 1003.7 -- 85
2020-09-20 12:00:00 20.1 4 Sur 8 Sur 0 1003.3 -- 84
2020-09-20 11:00:00 18.5 3 Noroeste 8 Noroeste 0 1002.8 -- 91
2020-09-20 10:00:00 17.2 4 Este 9 Este 0 1002.4 -- 93
2020-09-20 09:00:00 16.9 3 Nordeste 8 Nordeste 0 1002.1 -- 93
2020-09-20 08:00:00 16.9 4 Este 8 Nordeste 0 1001.4 -- 92
2020-09-20 07:00:00 17.3 0 Calma 6 Nordeste 0 1001.1 -- 91
2020-09-20 06:00:00 17.3 4 Nordeste 7 Nordeste 0 1000.9 -- 91
2020-09-20 05:00:00 17.6 0 Calma 5 Nordeste 0 1000.9 -- 91
2020-09-20 04:00:00 17.6 3 Noroeste 6 Nordeste 0 1001.1 -- 91
2020-09-20 03:00:00 17.8 2 Sur 8 Sur 0 1001.1 -- 90
2020-09-20 02:00:00 18 2 Norte 7 Este 0 1001 -- 88
2020-09-20 01:00:00 18 4 Este 6 Nordeste 0 1001.2 -- 88
2020-09-20 00:00:00 18.3 4 Nordeste 7 Nordeste 0 1001.3 -- 86
2020-09-19 23:00:00 18.4 4 Nordeste 8 Nordeste 0 1001.4 -- 85
2020-09-19 22:00:00 18.5 5 Nordeste 7 Nordeste 0 1001 -- 83
2020-09-19 21:00:00 19 2 Norte 5 Sudoeste 0 1000.4 -- 80
2020-09-19 20:00:00 19.7 4 Sudoeste 11 Sudoeste 0 1000 -- 78
2020-09-19 19:00:00 20.9 8 Sudoeste 15 Sudoeste 0 999.6 -- 71
2020-09-19 18:00:00 21.8 7 Sudoeste 16 Oeste 0 999.6 -- 72
2020-09-19 17:00:00 22.2 8 Sudoeste 22 Sudoeste 0 999.7 -- 74
2020-09-19 16:00:00 20.4 4 Sudoeste 15 Sudoeste 0 1000.1 -- 84
2020-09-19 15:00:00 19.4 7 Sudoeste 19 Sudoeste 0.6 1000.4 -- 88
2020-09-19 14:00:00 20 10 Sudoeste 18 Sudoeste 0 1000.6 -- 79
2020-09-19 13:00:00 20.3 5 Sur 10 Sur 0 1000.5 -- 81
2020-09-19 12:00:00 18.6 3 Sudeste 10 Sudeste 0 1000.3 -- 88
2020-09-19 11:00:00 18.2 3 Sur 7 Sur 0 999.7 -- 92
2020-09-19 10:00:00 17.3 3 Sur 6 Sur 0 999.2 -- 94
2020-09-19 09:00:00 16.7 2 Sudeste 4 Sur 0 998.6 -- 94
2020-09-19 08:00:00 17 0 Calma 8 Sur 0 997.9 -- 95
2020-09-19 07:00:00 17 0 Calma 9 Sur 0.4 997.3 -- 94
2020-09-19 06:00:00 17.2 3 Sur 5 Sudoeste 0 996.9 -- 93
2020-09-19 05:00:00 17.3 3 Sudoeste 10 Sudoeste 0 996.3 -- 92
2020-09-19 04:00:00 17.2 3 Sur 11 Sudeste 0 996 -- 90
2020-09-19 03:00:00 17.2 2 Sudeste 6 Este 0 995.3 -- 89
2020-09-19 02:00:00 17.4 4 Nordeste 6 Noroeste 0 995 -- 88
2020-09-19 01:00:00 17.6 3 Norte 5 Sudeste 0 994.6 -- 89
2020-09-19 00:00:00 18.2 4 Norte 17 Nordeste 0 994.7 -- 86
2020-09-18 23:00:00 18.2 4 Norte 18 Este 0 994.8 -- 89
2020-09-18 22:00:00 18.1 8 Nordeste 13 Nordeste 0.6 994.5 -- 91
2020-09-18 21:00:00 18.7 5 Nordeste 17 Este 2.6 994.5 -- 85
2020-09-18 20:00:00 21.4 8 Nordeste 12 Norte 0 993.9 -- 69
2020-09-18 19:00:00 23.3 5 Norte 21 Noroeste 0 993.5 -- 62
2020-09-18 18:00:00 25 12 Noroeste 21 Noroeste 0 993.4 -- 56
2020-09-18 17:00:00 25.3 6 Oeste 14 Oeste 0 993.7 -- 49
2020-09-18 16:00:00 24.3 6 Oeste 16 Sudoeste 0 994.2 -- 51
2020-09-18 15:00:00 24.2 6 Sudoeste 18 Sur 0 994.9 -- 55
2020-09-18 14:00:00 23.2 8 Sur 17 Sur 0 995.6 -- 60
2020-09-18 13:00:00 21.9 3 Oeste 8 Oeste 0 995.8 -- 72
2020-09-18 12:00:00 20.5 4 Norte 9 Norte 0 995.8 -- 78
2020-09-18 11:00:00 17.1 6 Nordeste 15 Nordeste 0 995.7 -- 87
2020-09-18 10:00:00 15.6 7 Nordeste 12 Nordeste 0 995.5 -- 95
2020-09-18 09:00:00 14.7 9 Nordeste 15 Nordeste 0 995.1 -- 96
2020-09-18 08:00:00 15.2 7 Nordeste 15 Este 0.2 994.4 -- 96
2020-09-18 07:00:00 15.5 8 Este 10 Este 0 994.6 -- 95
2020-09-18 06:00:00 15.7 2 Este 13 Nordeste 0 994.6 -- 95
2020-09-18 05:00:00 16.3 10 Nordeste 14 Nordeste 0 994.6 -- 95
2020-09-18 04:00:00 16.6 10 Nordeste 14 Nordeste 0.4 994.9 -- 95
2020-09-18 03:00:00 17 10 Nordeste 17 Nordeste 0.4 995 -- 94
2020-09-18 02:00:00 17.1 4 Nordeste 15 Nordeste 0.6 995.2 -- 93
2020-09-18 01:00:00 17.1 6 Nordeste 12 Nordeste 0 995.2 -- 93
2020-09-18 00:00:00 17.1 4 Este 13 Nordeste 0 995.6 -- 93
2020-09-17 23:00:00 17.3 9 Nordeste 13 Nordeste 0 996 -- 93
2020-09-17 22:00:00 17.3 8 Nordeste 15 Nordeste 0.2 996.3 -- 94
2020-09-17 21:00:00 17.4 8 Nordeste 13 Nordeste 0 996.2 -- 94
2020-09-17 20:00:00 17.5 6 Norte 15 Este 1.6 995.8 -- 94
2020-09-17 19:00:00 17.5 5 Sur 11 Nordeste 1.2 995.4 -- 93
2020-09-17 18:00:00 17.4 4 Este 11 Nordeste 2.2 995.7 -- 90
2020-09-17 17:00:00 19.2 6 Sudoeste 34 Sudoeste 2.2 995.6 -- 78
2020-09-17 16:00:00 24.6 9 Sudoeste 19 Sudoeste 0 994.9 -- 58
2020-09-17 15:00:00 25.1 6 Noroeste 12 Oeste 0 995.5 -- 56
2020-09-17 14:00:00 23.6 6 Oeste 12 Noroeste 0 996.6 -- 62
2020-09-17 13:00:00 22.2 8 Oeste 12 Oeste 0 997.1 -- 68
2020-09-17 12:00:00 20.4 5 Sudoeste 9 Oeste 0 998 -- 75
2020-09-17 11:00:00 19.3 4 Sudoeste 9 Sudeste 0 998 -- 82
2020-09-17 10:00:00 18 5 Sudeste 9 Sur 0 997.9 -- 88
2020-09-17 09:00:00 16.5 5 Nordeste 19 Sudoeste 0.2 997.7 -- 91
2020-09-17 08:00:00 16.7 3 Sur 10 Nordeste 0 996.9 -- 89
2020-09-17 07:00:00 16.5 6 Nordeste 12 Nordeste 0 996.4 -- 87
2020-09-17 06:00:00 16.2 3 Nordeste 14 Este 0 996.8 -- 88
2020-09-17 05:00:00 16.6 9 Nordeste 16 Nordeste 0 997.3 -- 88
2020-09-17 04:00:00 16.4 6 Nordeste 18 Nordeste 0 998.3 -- 89
2020-09-17 03:00:00 16.3 5 Nordeste 11 Nordeste 0 999.5 -- 88
2020-09-17 02:00:00 16.6 7 Nordeste 12 Nordeste 0 1000.3 -- 86
2020-09-17 01:00:00 16.6 2 Sudeste 7 Este 0 1000.9 -- 84
2020-09-17 00:00:00 17.3 7 Nordeste 11 Norte 0 1001.1 -- 82
2020-09-16 23:00:00 17.4 5 Sudeste 11 Este 0 1001.3 -- 80
2020-09-16 22:00:00 18.2 5 Nordeste 8 Sudoeste 0 1001.6 -- 75
2020-09-16 21:00:00 19.4 5 Sudoeste 19 Sudoeste 0 1001.9 -- 70
2020-09-16 20:00:00 21 8 Sudoeste 23 Sudoeste 0 1001.6 -- 64
2020-09-16 19:00:00 22 9 Sudoeste 15 Sudoeste 0 1001.3 -- 63
2020-09-16 18:00:00 25.1 4 Sur 11 Sudoeste 0 1000.9 -- 56
2020-09-16 17:00:00 25.7 4 Sudoeste 11 Sudoeste 0 1001.4 -- 56
2020-09-16 16:00:00 27.1 5 Sudoeste 12 Sudoeste 0 1001.9 -- 52
2020-09-16 15:00:00 25.5 5 Sudoeste 15 Oeste 0 1002.8 -- 56
2020-09-16 14:00:00 25.3 7 Sudoeste 15 Sudoeste 0 1003.3 -- 56
2020-09-16 13:00:00 23.8 5 Oeste 11 Oeste 0 1003.6 -- 59
2020-09-16 12:00:00 22 3 Oeste 7 Norte 0 1004.1 -- 66
2020-09-16 11:00:00 20.2 2 Noroeste 9 Nordeste 0 1004.3 -- 78
2020-09-16 10:00:00 16.5 6 Este 10 Este 0 1004.2 -- 88
2020-09-16 09:00:00 14.3 2 Sudeste 10 Nordeste 0 1004.2 -- 91
2020-09-16 08:00:00 15.6 6 Este 18 Nordeste 0 1003.5 -- 86
2020-09-16 07:00:00 14.7 5 Nordeste 13 Nordeste 0 1003.7 -- 89
2020-09-16 06:00:00 15.2 6 Nordeste 14 Nordeste 0 1004 -- 86
2020-09-16 05:00:00 15.8 8 Nordeste 10 Nordeste 0 1004.4 -- 85
2020-09-16 04:00:00 15.6 2 Este 12 Este 0 1004.7 -- 88
2020-09-16 03:00:00 16.5 3 Nordeste 8 Nordeste 0 1005.2 -- 85
2020-09-16 02:00:00 16.1 2 Este 6 Este 0 1005.4 -- 85
2020-09-16 01:00:00 16.9 5 Norte 7 Nordeste 0 1005.4 -- 85
2020-09-16 00:00:00 17 4 Este 10 Sudeste 0 1005.4 -- 87
2020-09-15 23:00:00 17.7 2 Sudeste 8 Este 0 1005.6 -- 87
2020-09-15 22:00:00 18.3 3 Este 8 Este 0 1005.3 -- 84
2020-09-15 21:00:00 19.8 2 Noroeste 12 Sudoeste 0 1005 -- 78
2020-09-15 20:00:00 21.2 9 Sudoeste 18 Sudoeste 0 1005 -- 72
2020-09-15 19:00:00 22.7 8 Sudoeste 23 Sudoeste 0 1004.8 -- 67
2020-09-15 18:00:00 23.1 6 Sudoeste 22 Sudoeste 0 1004.7 -- 69
2020-09-15 17:00:00 22.8 8 Sudoeste 27 Sudoeste 0 1005.2 -- 71
2020-09-15 16:00:00 21.9 13 Sudoeste 24 Sudoeste 0 1005.8 -- 74
2020-09-15 15:00:00 22.6 9 Sudoeste 23 Sudoeste 0 1006.2 -- 69
2020-09-15 14:00:00 22.2 14 Sudoeste 28 Sur 0 1006.3 -- 69
2020-09-15 13:00:00 23.5 13 Sur 34 Sur 0 1006.3 -- 64
2020-09-15 12:00:00 22.7 6 Sur 14 Sudeste 0 1006.3 -- 68
2020-09-15 11:00:00 19.1 4 Noroeste 6 Noroeste 0 1006.2 -- 84
2020-09-15 10:00:00 17.9 3 Sur 19 Sur 0 1005.9 -- 87
2020-09-15 09:00:00 17.5 3 Noroeste 5 Noroeste 0 1005.6 -- 83
2020-09-15 08:00:00 17 2 Noroeste 9 Sudeste 0 1005 -- 84
2020-09-15 07:00:00 17.9 6 Sudeste 13 Sudeste 0 1004.8 -- 82
2020-09-15 06:00:00 17.3 5 Nordeste 9 Nordeste 0 1004.8 -- 82
2020-09-15 05:00:00 16.7 3 Norte 6 Nordeste 0 1005.3 -- 84
2020-09-15 04:00:00 16.7 2 Norte 9 Este 0 1005.6 -- 85
2020-09-15 03:00:00 16.3 4 Este 13 Nordeste 0 1005.9 -- 84
2020-09-15 02:00:00 16.6 6 Nordeste 12 Nordeste 0 1005.8 -- 83
2020-09-15 01:00:00 17.2 5 Este 14 Nordeste 0 1005.6 -- 81
2020-09-15 00:00:00 17.5 6 Este 12 Este 0 1005.8 -- 82
2020-09-14 23:00:00 18 0 Calma 10 Nordeste 0 1005.6 -- 83
2020-09-14 22:00:00 18.7 4 Nordeste 8 Este 0 1004.9 -- 81
2020-09-14 21:00:00 19.7 3 Sur 16 Sudoeste 0 1004.6 -- 76
2020-09-14 20:00:00 21.7 9 Sudoeste 23 Sudoeste 0 1004.4 -- 67
2020-09-14 19:00:00 22.1 14 Sudoeste 28 Sudoeste 0 1004.2 -- 67
2020-09-14 18:00:00 22.1 14 Sudoeste 31 Sudoeste 0 1004.3 -- 65
2020-09-14 17:00:00 23.1 10 Sudoeste 26 Sudoeste 0 1004.3 -- 67
2020-09-14 16:00:00 22.6 12 Sudoeste 21 Oeste 0 1004.6 -- 75
2020-09-14 15:00:00 22.1 14 Sudoeste 23 Sudoeste 0 1005.2 -- 76
2020-09-14 14:00:00 21.7 8 Sudoeste 18 Sudoeste 0 1005.4 -- 80
2020-09-14 13:00:00 20.7 3 Oeste 9 Oeste 0 1005.8 -- 86
2020-09-14 12:00:00 19.8 3 Sur 3 Sur 0 1005.8 -- 89
2020-09-14 11:00:00 19.5 3 Nordeste 7 Este 0 1005.2 -- 89
2020-09-14 10:00:00 18.9 4 Nordeste 7 Este 0 1004.9 -- 90
2020-09-14 09:00:00 18.5 3 Este 7 Nordeste 0 1004.6 -- 90
2020-09-14 08:00:00 18.3 4 Nordeste 7 Nordeste 0.2 1004 -- 90
2020-09-14 07:00:00 18.7 3 Nordeste 6 Sudoeste 0 1003.6 -- 90
2020-09-14 06:00:00 18.4 3 Sur 8 Sudoeste 0 1004 -- 89
2020-09-14 05:00:00 18.7 5 Sur 12 Sudeste 0.4 1003.6 -- 84
2020-09-14 04:00:00 19.9 6 Nordeste 12 Nordeste 0 1003.5 -- 72
2020-09-14 03:00:00 20.4 8 Nordeste 13 Este 0 1004.3 -- 63
2020-09-14 02:00:00 20.7 6 Nordeste 13 Nordeste 0 1004.7 -- 61
2020-09-14 01:00:00 21.1 9 Nordeste 16 Nordeste 0 1004.7 -- 57
2020-09-14 00:00:00 21.6 7 Nordeste 9 Este 0 1004.7 -- 52
2020-09-13 23:00:00 21.9 2 Sur 9 Nordeste 0 1004.3 -- 51
2020-09-13 22:00:00 22.3 3 Nordeste 9 Sur 0 1003.7 -- 49
2020-09-13 21:00:00 22.7 5 Sudoeste 11 Sudoeste 0 1003 -- 47
2020-09-13 20:00:00 24.9 5 Sudeste 10 Sudeste 0 1002.8 -- 42
2020-09-13 19:00:00 26.2 3 Sudeste 9 Sur 0 1002.6 -- 43
2020-09-13 18:00:00 27.1 5 Sudeste 11 Sudoeste 0 1002.8 -- 40
2020-09-13 17:00:00 29.5 5 Sur 11 Sur 0 1002.9 -- 36
2020-09-13 16:00:00 28.9 4 Sur 23 Sudoeste 0 1003 -- 39
2020-09-13 15:00:00 28.7 13 Sudoeste 32 Sudoeste 0 1003.3 -- 41
2020-09-13 14:00:00 29.8 5 Sudoeste 11 Sudoeste 0 1003 -- 39
2020-09-13 13:00:00 27.6 8 Sudoeste 20 Sudoeste 0 1003.2 -- 40
2020-09-13 12:00:00 27.4 8 Sur 18 Sudoeste 0 1003.1 -- 43
2020-09-13 11:00:00 28.9 0 Calma 8 Este 0 1002.4 -- 36
2020-09-13 10:00:00 26.4 5 Este 9 Sudoeste 0 1002.3 -- 40
2020-09-13 09:00:00 24.2 6 Este 12 Nordeste 0 1002 -- 34
2020-09-13 08:00:00 25.5 6 Nordeste 13 Nordeste 0 1001.7 -- 30
2020-09-13 07:00:00 24.8 4 Este 12 Nordeste 0 1001.7 -- 36
2020-09-13 06:00:00 25.4 6 Nordeste 13 Nordeste 0 1001.7 -- 36
2020-09-13 05:00:00 23.8 9 Nordeste 16 Este 0 1001.6 -- 45
2020-09-13 04:00:00 24.2 8 Este 16 Este 0 1001.8 -- 45
2020-09-13 03:00:00 24.4 11 Este 16 Nordeste 0 1002 -- 44
2020-09-13 02:00:00 24.7 9 Nordeste 17 Este 0 1002.3 -- 44
2020-09-13 01:00:00 25.1 11 Este 16 Nordeste 0 1002.5 -- 45
2020-09-13 00:00:00 26.1 8 Nordeste 16 Nordeste 0 1002.6 -- 45
2020-09-12 23:00:00 27.3 10 Nordeste 19 Nordeste 0 1002.5 -- 43
2020-09-12 22:00:00 27.6 6 Nordeste 13 Nordeste 0 1002 -- 47
2020-09-12 21:00:00 28 2 Sudeste 5 Sur 0 1001.5 -- 43
2020-09-12 20:00:00 30.1 4 Sudeste 7 Sur 0 1001.3 -- 40
2020-09-12 19:00:00 33.1 3 Sudoeste 19 Oeste 0 1001 -- 35
2020-09-12 18:00:00 34.9 12 Oeste 19 Oeste 0 1000.9 -- 26
2020-09-12 17:00:00 35.1 5 Sur 15 Sudoeste 0 1001 -- 34
2020-09-12 16:00:00 35 8 Sudoeste 18 Oeste 0 1001.2 -- 27
2020-09-12 15:00:00 34.4 8 Noroeste 13 Noroeste 0 1001.6 -- 27
2020-09-12 14:00:00 32 5 Oeste 8 Sudoeste 0 1001.9 -- 42
2020-09-12 13:00:00 29.2 4 Oeste 7 Oeste 0 1002.2 -- 43
2020-09-12 12:00:00 26.1 3 Sudeste 5 Sudoeste 0 1002 -- 54
2020-09-12 11:00:00 23.1 2 Noroeste 4 Sudoeste 0 1001.7 -- 64
2020-09-12 10:00:00 20.3 0 Calma 5 Nordeste 0 1001.5 -- 65
2020-09-12 09:00:00 17.5 5 Norte 11 Nordeste 0 1001.3 -- 70
2020-09-12 08:00:00 16.9 6 Nordeste 13 Este 0 1000.8 -- 74
2020-09-12 07:00:00 16.9 4 Nordeste 13 Norte 0 1000.7 -- 74
2020-09-12 06:00:00 18 3 Nordeste 11 Norte 0 1000.6 -- 71
2020-09-12 05:00:00 18.2 3 Norte 13 Nordeste 0 1000.5 -- 74
2020-09-12 04:00:00 19.3 8 Nordeste 11 Nordeste 0 1000.4 -- 74
2020-09-12 03:00:00 19.5 5 Este 14 Nordeste 0 1000.6 -- 73
2020-09-12 02:00:00 20.1 7 Nordeste 13 Nordeste 0 1000.7 -- 70
2020-09-12 01:00:00 20.8 3 Este 16 Este 0 1000.8 -- 67
2020-09-12 00:00:00 21.1 9 Nordeste 18 Nordeste 0 1000.4 -- 68
2020-09-11 23:00:00 20.1 4 Este 13 Este 0 1000.6 -- 74
2020-09-11 22:00:00 20.4 3 Sur 10 Nordeste 0 1000.3 -- 70
2020-09-11 21:00:00 21.7 3 Norte 6 Sudeste 0 999.7 -- 61
2020-09-11 20:00:00 23.4 2 Sur 10 Sur 0 999.6 -- 56
2020-09-11 19:00:00 24.3 6 Sur 12 Sur 0 999.7 -- 51
2020-09-11 18:00:00 26.4 7 Sur 16 Sur 0 999.7 -- 48
2020-09-11 17:00:00 25.4 8 Sur 15 Sur 0 1000 -- 51
2020-09-11 16:00:00 27.7 8 Sur 14 Sudoeste 0 1000.1 -- 47
2020-09-11 15:00:00 27.7 6 Sur 13 Sudoeste 0 1000.3 -- 46
2020-09-11 14:00:00 26.1 6 Sur 16 Sudoeste 0 1000.6 -- 49
2020-09-11 13:00:00 26.4 4 Sudoeste 10 Sur 0 1000.7 -- 52
2020-09-11 12:00:00 24.4 4 Sudoeste 6 Noroeste 0 1000.6 -- 57
2020-09-11 11:00:00 21.1 4 Norte 7 Norte 0 1000.2 -- 66
2020-09-11 10:00:00 19.7 3 Sur 9 Este 0 1000.3 -- 69
2020-09-11 09:00:00 17 6 Nordeste 10 Nordeste 0 1000.2 -- 69
2020-09-11 08:00:00 17.4 5 Nordeste 10 Nordeste 0 1000 -- 66
2020-09-11 07:00:00 17.3 4 Este 17 Nordeste 0 999.8 -- 66
2020-09-11 06:00:00 18.6 10 Nordeste 18 Nordeste 0 999.9 -- 61
2020-09-11 05:00:00 18.4 4 Nordeste 18 Nordeste 0 1000.2 -- 64
2020-09-11 04:00:00 18.2 2 Noroeste 8 Norte 0 1000.5 -- 71
2020-09-11 03:00:00 19.3 5 Este 11 Este 0 1000.9 -- 65
2020-09-11 02:00:00 20.6 7 Este 15 Este 0 1001.3 -- 65
2020-09-11 01:00:00 20.6 6 Este 11 Este 0 1001.8 -- 65
2020-09-11 00:00:00 19.5 4 Este 9 Nordeste 0 1001.9 -- 74
2020-09-10 23:00:00 20.4 4 Este 14 Nordeste 0 1002.2 -- 69
2020-09-10 22:00:00 20.3 5 Este 9 Este 0 1002.2 -- 64
2020-09-10 21:00:00 21.5 4 Sur 9 Sur 0 1002.1 -- 60
2020-09-10 20:00:00 23.9 2 Sur 10 Sudoeste 0 1002.3 -- 51
2020-09-10 19:00:00 25.4 5 Sur 21 Sudoeste 0 1002.5 -- 46
2020-09-10 18:00:00 26.5 7 Sur 16 Sudoeste 0 1002.8 -- 45
2020-09-10 17:00:00 27.6 7 Sur 16 Sudoeste 0 1003.2 -- 42
2020-09-10 16:00:00 27.9 8 Sur 18 Sudoeste 0 1003.9 -- 43
2020-09-10 15:00:00 28.2 6 Sur 18 Sudoeste 0 1004.4 -- 47
2020-09-10 14:00:00 28.1 9 Sudoeste 17 Sudoeste 0 1004.9 -- 41
2020-09-10 13:00:00 26.7 4 Sudoeste 8 Norte 0 1005.1 -- 48
2020-09-10 12:00:00 24.1 5 Norte 8 Nordeste 0 1005.5 -- 58
2020-09-10 11:00:00 21 3 Nordeste 5 Nordeste 0 1005.7 -- 62
2020-09-10 10:00:00 18.3 0 Calma 14 Este 0 1005.6 -- 70
2020-09-10 09:00:00 16 9 Nordeste 13 Nordeste 0 1005.6 -- 72
2020-09-10 08:00:00 15.6 0 Calma 15 Nordeste 0 1005.3 -- 73
2020-09-10 07:00:00 16.1 8 Nordeste 14 Este 0 1004.7 -- 71
2020-09-10 06:00:00 16.3 10 Nordeste 15 Nordeste 0 1004.7 -- 72
2020-09-10 05:00:00 16.6 3 Nordeste 17 Este 0 1005.2 -- 70
2020-09-10 04:00:00 17.6 7 Nordeste 17 Nordeste 0 1005.2 -- 67
2020-09-10 03:00:00 17.7 5 Nordeste 14 Nordeste 0 1005.7 -- 68
2020-09-10 02:00:00 18.3 4 Nordeste 7 Nordeste 0 1006.1 -- 66
2020-09-10 01:00:00 19.2 6 Este 15 Nordeste 0 1006.4 -- 61
2020-09-10 00:00:00 20.4 8 Nordeste 18 Nordeste 0 1006.5 -- 51
2020-09-09 23:00:00 20.8 9 Nordeste 16 Nordeste 0 1006.7 -- 50
2020-09-09 22:00:00 21.2 8 Nordeste 12 Este 0 1006.4 -- 47
2020-09-09 21:00:00 22.4 2 Sur 10 Sudoeste 0 1005.8 -- 46
2020-09-09 20:00:00 25.3 3 Sur 14 Sudoeste 0 1005.6 -- 38
2020-09-09 19:00:00 27.4 8 Sudoeste 19 Sudoeste 0 1005.5 -- 33
2020-09-09 18:00:00 28.2 8 Sudoeste 19 Sudoeste 0 1005.6 -- 29
2020-09-09 17:00:00 28.6 9 Sudoeste 20 Sudoeste 0 1005.7 -- 29
2020-09-09 16:00:00 29 10 Sudoeste 20 Sudoeste 0 1005.6 -- 28
2020-09-09 15:00:00 30.2 7 Sudoeste 17 Sudoeste 0 1005.8 -- 28
2020-09-09 14:00:00 29.4 10 Sudoeste 15 Sudoeste 0 1006.2 -- 29
2020-09-09 13:00:00 27.4 5 Sudoeste 8 Sudoeste 0 1006.4 -- 41
2020-09-09 12:00:00 24.6 3 Sur 6 Noroeste 0 1006.6 -- 52
2020-09-09 11:00:00 21.1 2 Oeste 4 Sudoeste 0 1006.6 -- 58
2020-09-09 10:00:00 19.3 0 Calma 4 Este 0 1006.3 -- 60
2020-09-09 09:00:00 16.2 0 Calma 10 Nordeste 0 1005.8 -- 66
2020-09-09 08:00:00 16.3 4 Este 15 Este 0 1005.2 -- 65
2020-09-09 07:00:00 17.2 14 Este 20 Este 0 1004.7 -- 63
2020-09-09 06:00:00 18.2 14 Nordeste 26 Nordeste 0 1004.6 -- 57
2020-09-09 05:00:00 18.3 12 Nordeste 21 Nordeste 0 1004.8 -- 60
2020-09-09 04:00:00 17.8 10 Nordeste 19 Este 0 1005.1 -- 64
2020-09-09 03:00:00 16.9 3 Sur 18 Este 0 1005.2 -- 70
2020-09-09 02:00:00 17.6 5 Nordeste 19 Nordeste 0 1005.4 -- 69
2020-09-09 01:00:00 18.6 7 Este 22 Nordeste 0 1005.6 -- 64
2020-09-09 00:00:00 18.9 11 Nordeste 16 Nordeste 0 1005.8 -- 62
2020-09-08 23:00:00 19.1 9 Nordeste 15 Nordeste 0 1005.9 -- 57
2020-09-08 22:00:00 19.5 6 Nordeste 9 Nordeste 0 1005.7 -- 51
2020-09-08 21:00:00 20.8 0 Calma 8 Sur 0 1005.3 -- 50
2020-09-08 20:00:00 23.9 5 Sudoeste 15 Sudoeste 0 1004.9 -- 42
2020-09-08 19:00:00 26.6 10 Sudoeste 18 Sudoeste 0 1004.7 -- 36
2020-09-08 18:00:00 28.4 10 Sudoeste 22 Sudoeste 0 1004.6 -- 33
2020-09-08 17:00:00 29.2 8 Sudoeste 17 Sudoeste 0 1004.9 -- 30
2020-09-08 16:00:00 29.8 9 Noroeste 17 Oeste 0 1005.2 -- 23
2020-09-08 15:00:00 29.4 5 Noroeste 16 Norte 0 1005.7 -- 25
2020-09-08 14:00:00 28.7 6 Noroeste 13 Noroeste 0 1006.1 -- 24
2020-09-08 13:00:00 26.9 5 Norte 11 Norte 0 1006.7 -- 29
2020-09-08 12:00:00 23.4 3 Oeste 8 Sudoeste 0 1007 -- 42
2020-09-08 11:00:00 21.2 3 Sudoeste 11 Norte 0 1006.9 -- 50
2020-09-08 10:00:00 19.7 3 Nordeste 11 Nordeste 0 1006.6 -- 43
2020-09-08 09:00:00 17.3 5 Este 13 Nordeste 0 1006.4 -- 45
2020-09-08 08:00:00 17.9 6 Nordeste 17 Nordeste 0 1006.1 -- 42
2020-09-08 07:00:00 18.3 8 Nordeste 16 Norte 0 1005.9 -- 46
2020-09-08 06:00:00 18.3 9 Nordeste 19 Este 0 1005.9 -- 56
2020-09-08 05:00:00 17.4 9 Nordeste 17 Nordeste 0 1006 -- 65
2020-09-08 04:00:00 17.3 5 Norte 15 Nordeste 0 1006.1 -- 70
2020-09-08 03:00:00 17.7 5 Este 12 Nordeste 0 1006.1 -- 70
2020-09-08 02:00:00 19.5 5 Este 21 Nordeste 0 1006 -- 62
2020-09-08 01:00:00 20 11 Nordeste 17 Nordeste 0 1005.9 -- 61
2020-09-08 00:00:00 20.3 6 Nordeste 14 Nordeste 0 1005.8 -- 61
2020-09-07 23:00:00 21.2 4 Nordeste 16 Noroeste 0 1005.7 -- 59
2020-09-07 22:00:00 22.2 5 Norte 26 Nordeste 0 1005.3 -- 56
2020-09-07 21:00:00 24.1 7 Norte 28 Nordeste 0 1004.8 -- 51
2020-09-07 20:00:00 26.8 8 Norte 26 Norte 0 1004.5 -- 44
2020-09-07 19:00:00 28.8 12 Noroeste 27 Norte 0 1004.1 -- 38
2020-09-07 18:00:00 29.9 8 Norte 22 Noroeste 0 1004 -- 34
2020-09-07 17:00:00 30.1 8 Nordeste 20 Norte 0 1004.2 -- 34
2020-09-07 16:00:00 29 7 Norte 15 Nordeste 0 1004.9 -- 34
2020-09-07 15:00:00 27.8 9 Nordeste 20 Este 0 1005.3 -- 39
2020-09-07 14:00:00 26.6 7 Nordeste 21 Nordeste 0 1005.5 -- 39
2020-09-07 13:00:00 24.9 8 Norte 21 Noroeste 0 1005.8 -- 44
2020-09-07 12:00:00 23.3 11 Nordeste 23 Nordeste 0 1005.8 -- 49
2020-09-07 11:00:00 20.9 10 Nordeste 21 Nordeste 0 1005.7 -- 52
2020-09-07 10:00:00 18.4 10 Nordeste 21 Nordeste 0 1005.5 -- 59
2020-09-07 09:00:00 15.7 2 Norte 14 Nordeste 0 1005.2 -- 68
2020-09-07 08:00:00 15.6 8 Nordeste 14 Nordeste 0 1004.9 -- 67
2020-09-07 07:00:00 16.3 5 Nordeste 27 Nordeste 0 1004.2 -- 64
2020-09-07 06:00:00 16.4 7 Nordeste 19 Nordeste 0 1004 -- 64
2020-09-07 05:00:00 15.2 4 Nordeste 10 Nordeste 0 1003.9 -- 68
2020-09-07 04:00:00 16.2 4 Nordeste 21 Norte 0 1004.4 -- 66
2020-09-07 03:00:00 16.5 8 Norte 19 Norte 0 1004.4 -- 63
2020-09-07 02:00:00 16.5 6 Noroeste 24 Noroeste 0 1004.6 -- 65
2020-09-07 01:00:00 17.4 14 Norte 30 Norte 0 1004.4 -- 63
2020-09-07 00:00:00 18 10 Norte 25 Norte 0 1004.3 -- 60
2020-09-06 23:00:00 18.4 12 Norte 28 Noroeste 0 1004.4 -- 61
2020-09-06 22:00:00 19.3 9 Norte 41 Norte 0 1004.5 -- 59
2020-09-06 21:00:00 21.2 13 Norte 27 Nordeste 0 1003.1 -- 54
2020-09-06 20:00:00 23.6 12 Nordeste 37 Norte 0 1003.4 -- 49
2020-09-06 19:00:00 25.5 12 Norte 30 Nordeste 0 1002.9 -- 46
2020-09-06 18:00:00 26.8 12 Norte 32 Nordeste 0 1002.9 -- 43
2020-09-06 17:00:00 27.4 12 Norte 39 Norte 0 1003.1 -- 43
2020-09-06 16:00:00 27.5 16 Noroeste 30 Norte 0 1003.2 -- 44
2020-09-06 15:00:00 26.7 10 Norte 33 Nordeste 0 1003.5 -- 47
2020-09-06 14:00:00 25.3 13 Norte 33 Norte 0 1003.9 -- 51
2020-09-06 13:00:00 24.1 12 Norte 34 Norte 0 1004.1 -- 54
2020-09-06 12:00:00 22.3 13 Norte 33 Nordeste 0 1004.3 -- 59
2020-09-06 11:00:00 20.5 11 Norte 30 Norte 0 1004.3 -- 64
2020-09-06 10:00:00 18.8 17 Nordeste 42 Nordeste 0 1004.1 -- 69
2020-09-06 09:00:00 17.4 12 Norte 32 Nordeste 0 1004 -- 74
2020-09-06 08:00:00 17.4 13 Norte 31 Noroeste 0 1003.7 -- 73
2020-09-06 07:00:00 17.4 10 Norte 25 Nordeste 0 1003.6 -- 73
2020-09-06 06:00:00 17.7 9 Norte 31 Nordeste 0 1003.8 -- 73
2020-09-06 05:00:00 18 14 Norte 38 Nordeste 0 1004.1 -- 72
2020-09-06 04:00:00 18 12 Norte 33 Norte 0 1004.3 -- 72
2020-09-06 03:00:00 18.2 11 Norte 35 Noroeste 0 1004.6 -- 72
2020-09-06 02:00:00 18.5 15 Norte 37 Norte 0 1005 -- 72
2020-09-06 01:00:00 18.6 17 Norte 37 Nordeste 0 1005.2 -- 72
2020-09-06 00:00:00 18.8 17 Nordeste 36 Nordeste 0 1005.5 -- 72
2020-09-05 23:00:00 19.2 13 Nordeste 45 Nordeste 0 1005.6 -- 70
2020-09-05 22:00:00 19.9 16 Norte 46 Nordeste 0 1005.2 -- 68
2020-09-05 21:00:00 21.3 12 Norte 31 Nordeste 0 1004.8 -- 66
2020-09-05 20:00:00 24 15 Norte 31 Noroeste 0 1004.5 -- 59
2020-09-05 19:00:00 26.1 11 Norte 32 Noroeste 0 1004.3 -- 54
2020-09-05 18:00:00 27.6 11 Norte 32 Norte 0 1004.3 -- 51
2020-09-05 17:00:00 27.8 12 Norte 33 Norte 0 1004.6 -- 48
2020-09-05 16:00:00 28 14 Norte 34 Norte 0 1005.2 -- 51
2020-09-05 15:00:00 27.4 14 Norte 31 Noroeste 0 1005.7 -- 51
2020-09-05 14:00:00 26.3 13 Norte 31 Norte 0 1006.1 -- 54
2020-09-05 13:00:00 25.4 11 Norte 27 Norte 0 1006.5 -- 57
2020-09-05 12:00:00 24 9 Norte 29 Noroeste 0 1006.6 -- 63
2020-09-05 11:00:00 22.4 10 Norte 30 Norte 0 1006.6 -- 68
2020-09-05 10:00:00 20.7 9 Norte 23 Nordeste 0 1006.5 -- 73
2020-09-05 09:00:00 18.6 4 Norte 17 Nordeste 0 1006.6 -- 81
2020-09-05 08:00:00 18.1 5 Nordeste 24 Nordeste 0 1006.2 -- 82
2020-09-05 07:00:00 18.1 6 Norte 19 Norte 0 1006.1 -- 83
2020-09-05 06:00:00 17.6 6 Norte 27 Nordeste 0 1006.3 -- 85
2020-09-05 05:00:00 16.7 5 Norte 12 Norte 0 1006.4 -- 89
2020-09-05 04:00:00 16.4 2 Nordeste 8 Noroeste 0 1006.7 -- 91
2020-09-05 03:00:00 16.9 4 Norte 9 Norte 0 1006.9 -- 89
2020-09-05 02:00:00 17.8 6 Nordeste 17 Este 0 1007.1 -- 86
2020-09-05 01:00:00 17.7 5 Nordeste 16 Nordeste 0 1007.3 -- 87
2020-09-05 00:00:00 17.4 5 Nordeste 10 Nordeste 0 1007.4 -- 91
2020-09-04 23:00:00 17.3 2 Nordeste 8 Norte 0 1007.7 -- 91
2020-09-04 22:00:00 17.2 6 Este 9 Este 0 1007.5 -- 89
2020-09-04 21:00:00 18.5 6 Sudoeste 15 Sudoeste 0 1007.1 -- 84
2020-09-04 20:00:00 21.3 5 Sudoeste 14 Sudoeste 0 1006.7 -- 74
2020-09-04 19:00:00 22.1 6 Sudoeste 21 Sudoeste 0 1007 -- 72
2020-09-04 18:00:00 22.4 10 Sudoeste 23 Sudoeste 0 1006.9 -- 72
2020-09-04 17:00:00 22.2 13 Sudoeste 25 Sur 0 1006.8 -- 66
2020-09-04 16:00:00 24.6 6 Sudoeste 19 Sudoeste 0 1006.8 -- 61
2020-09-04 15:00:00 24.1 7 Sur 19 Sudoeste 0 1007.4 -- 61
2020-09-04 14:00:00 23.9 10 Sudoeste 19 Sudoeste 0 1007.4 -- 59
2020-09-04 13:00:00 26.5 4 Oeste 9 Sudoeste 0 1007.3 -- 45
2020-09-04 12:00:00 24.6 4 Sudoeste 8 Sudoeste 0 1007.4 -- 50
2020-09-04 11:00:00 23.2 4 Nordeste 7 Nordeste 0 1007 -- 63
2020-09-04 10:00:00 20.9 0 Calma 4 Este 0 1006.6 -- 66
2020-09-04 09:00:00 17.5 2 Sur 3 Sudeste 0 1005.9 -- 73
2020-09-04 08:00:00 18.1 3 Sudeste 18 Nordeste 0 1005.3 -- 69
2020-09-04 07:00:00 18.4 6 Este 15 Nordeste 0 1004.9 -- 66
2020-09-04 06:00:00 18.4 6 Nordeste 19 Nordeste 0 1004.8 -- 66
2020-09-04 05:00:00 18.9 4 Este 21 Nordeste 0 1005.1 -- 63
2020-09-04 04:00:00 19.8 13 Este 22 Nordeste 0 1005.3 -- 60
2020-09-04 03:00:00 19.8 12 Nordeste 21 Nordeste 0 1005.7 -- 64
2020-09-04 02:00:00 20.5 12 Nordeste 18 Este 0 1005.8 -- 64
2020-09-04 01:00:00 20.9 12 Este 18 Nordeste 0 1005.8 -- 66
2020-09-04 00:00:00 21.4 12 Este 18 Este 0 1005.9 -- 66
2020-09-03 23:00:00 21.7 9 Nordeste 16 Nordeste 0 1005.9 -- 68
2020-09-03 22:00:00 21.6 4 Este 6 Nordeste 0 1005.6 -- 62
2020-09-03 21:00:00 23.6 3 Sudeste 9 Sur 0 1005.1 -- 54
2020-09-03 20:00:00 26.2 4 Sur 12 Sur 0 1004.9 -- 48
2020-09-03 19:00:00 28.2 5 Sur 15 Sudoeste 0 1004.9 -- 43
2020-09-03 18:00:00 29.5 5 Sur 16 Sudoeste 0 1004.8 -- 36
2020-09-03 17:00:00 30.7 7 Sur 15 Sudoeste 0 1004.9 -- 36
2020-09-03 16:00:00 30.8 9 Sudoeste 12 Sudoeste 0 1005.2 -- 36
2020-09-03 15:00:00 30.3 5 Sudoeste 11 Sudoeste 0 1005.5 -- 42
2020-09-03 14:00:00 29.3 4 Sudoeste 10 Sudoeste 0 1005.8 -- 41
2020-09-03 13:00:00 27.2 4 Oeste 8 Sudoeste 0 1006 -- 46
2020-09-03 12:00:00 25.4 4 Sudoeste 6 Norte 0 1005.8 -- 56
2020-09-03 11:00:00 22.4 3 Nordeste 12 Nordeste 0 1005.5 -- 62
2020-09-03 10:00:00 19.7 6 Nordeste 12 Nordeste 0 1005 -- 70
2020-09-03 09:00:00 16.6 7 Este 13 Este 0 1004.6 -- 79
2020-09-03 08:00:00 15.6 5 Nordeste 13 Nordeste 0 1004.1 -- 85
2020-09-03 07:00:00 15.2 2 Nordeste 8 Nordeste 0 1003.8 -- 86
2020-09-03 06:00:00 15.2 4 Nordeste 9 Este 0 1003.7 -- 89
2020-09-03 05:00:00 15.6 0 Calma 9 Nordeste 0 1003.7 -- 88
2020-09-03 04:00:00 15.9 0 Calma 8 Nordeste 0 1003.7 -- 88
2020-09-03 03:00:00 16.8 2 Norte 11 Nordeste 0 1003.8 -- 86
2020-09-03 02:00:00 17.2 0 Calma 3 Norte 0 1003.9 -- 85
2020-09-03 01:00:00 17.9 0 Calma 4 Noroeste 0 1004 -- 82
2020-09-03 00:00:00 19.1 0 Calma 10 Nordeste 0 1003.9 -- 79
2020-09-02 23:00:00 20.2 3 Noroeste 9 Norte 0 1004 -- 75
2020-09-02 22:00:00 21.7 3 Noroeste 8 Norte 0 1003.8 -- 70
2020-09-02 21:00:00 24.2 5 Norte 18 Noroeste 0 1003.1 -- 60
2020-09-02 20:00:00 26.7 12 Noroeste 22 Norte 0 1002.7 -- 50
2020-09-02 19:00:00 27.8 5 Sudoeste 24 Oeste 0 1002.4 -- 47
2020-09-02 18:00:00 28.5 11 Oeste 20 Oeste 0 1002.4 -- 45
2020-09-02 17:00:00 28.2 13 Noroeste 23 Noroeste 0 1002.4 -- 45
2020-09-02 16:00:00 27.2 14 Oeste 25 Noroeste 0 1002.8 -- 48
2020-09-02 15:00:00 26.5 13 Noroeste 23 Oeste 0 1002.9 -- 52
2020-09-02 14:00:00 25.1 13 Oeste 21 Noroeste 0 1003 -- 57
2020-09-02 13:00:00 23.5 10 Oeste 16 Noroeste 0 1003.1 -- 59
2020-09-02 12:00:00 21 4 Sudoeste 12 Oeste 0 1003.3 -- 65
2020-09-02 11:00:00 18.4 4 Oeste 8 Oeste 0 1003.3 -- 70
2020-09-02 10:00:00 16.2 4 Oeste 10 Este 0 1003 -- 78
2020-09-02 09:00:00 13.1 0 Calma 5 Sudeste 0 1003.2 -- 89
2020-09-02 08:00:00 13.2 3 Norte 10 Nordeste 0 1003 -- 86
2020-09-02 07:00:00 13.4 4 Noroeste 13 Nordeste 0 1002.4 -- 85
2020-09-02 06:00:00 13.9 5 Nordeste 17 Nordeste 0 1002.1 -- 83
2020-09-02 05:00:00 15.3 6 Noroeste 19 Norte 0 1002.4 -- 77
2020-09-02 04:00:00 15.7 7 Norte 19 Noroeste 0 1002 -- 74
2020-09-02 03:00:00 16 6 Norte 13 Norte 0 1002.1 -- 73
2020-09-02 02:00:00 16.1 6 Norte 17 Norte 0 1002.6 -- 72
2020-09-02 01:00:00 17.1 8 Norte 22 Norte 0 1002.6 -- 66
2020-09-02 00:00:00 18 9 Norte 20 Nordeste 0 1002.6 -- 66
2020-09-01 23:00:00 18.5 8 Norte 18 Noroeste 0 1002.5 -- 73
2020-09-01 22:00:00 19.5 5 Noroeste 20 Norte 0 1002.2 -- 70
2020-09-01 21:00:00 21 13 Noroeste 30 Noroeste 0 1001.5 -- 64
2020-09-01 20:00:00 23.5 16 Noroeste 32 Noroeste 0 1000.9 -- 57
2020-09-01 19:00:00 25.2 14 Noroeste 28 Noroeste 0 1000.5 -- 50
2020-09-01 18:00:00 26.1 14 Noroeste 26 Noroeste 0 1000.5 -- 43
2020-09-01 17:00:00 25.7 15 Noroeste 32 Noroeste 0 1000.6 -- 38
2020-09-01 16:00:00 25.5 17 Noroeste 30 Noroeste 0 1001.1 -- 43
2020-09-01 15:00:00 24.5 14 Noroeste 32 Noroeste 0 1001.5 -- 42
2020-09-01 14:00:00 23.6 14 Oeste 26 Noroeste 0 1002 -- 48
2020-09-01 13:00:00 22 17 Oeste 25 Noroeste 0 1002.4 -- 57
2020-09-01 12:00:00 21.2 4 Noroeste 9 Nordeste 0 1002.5 -- 60
2020-09-01 11:00:00 18.3 4 Noroeste 8 Oeste 0 1002.8 -- 67
2020-09-01 10:00:00 16.4 3 Nordeste 11 Este 0 1002.6 -- 71
2020-09-01 09:00:00 13.3 8 Este 11 Nordeste 0 1002.6 -- 80
2020-09-01 08:00:00 12.3 3 Nordeste 11 Nordeste 0 1002.6 -- 85
2020-09-01 07:00:00 13.1 7 Nordeste 13 Este 0 1002.2 -- 81
2020-09-01 06:00:00 13 6 Este 10 Este 0 1002.2 -- 84
2020-09-01 05:00:00 13.9 6 Este 12 Este 0 1002.1 -- 77
2020-09-01 04:00:00 14.4 5 Nordeste 7 Nordeste 0 1002.5 -- 76
2020-09-01 03:00:00 14.6 2 Nordeste 8 Noroeste 0 1003.2 -- 78
2020-09-01 02:00:00 14.6 3 Nordeste 14 Este 0 1003.2 -- 79
2020-09-01 01:00:00 14.8 6 Nordeste 13 Nordeste 0 1003.6 -- 80
2020-09-01 00:00:00 15.3 6 Este 11 Este 0 1003.8 -- 75
2020-08-31 23:00:00 15.8 3 Sur 9 Sur 0 1004 -- 79
2020-08-31 22:00:00 16.4 5 Sur 13 Sudoeste 0 1003.7 -- 74
2020-08-31 21:00:00 17.9 5 Sudoeste 13 Sudoeste 0 1003.6 -- 61
2020-08-31 20:00:00 20.3 8 Sudoeste 17 Sudoeste 0 1003.4 -- 43
2020-08-31 19:00:00 21.3 6 Sudoeste 17 Sudoeste 0 1003.4 -- 41
2020-08-31 18:00:00 22.3 4 Sudoeste 17 Oeste 0 1003.5 -- 39
2020-08-31 17:00:00 22.8 11 Sudoeste 22 Sudoeste 0 1004.2 -- 38
2020-08-31 16:00:00 21.9 11 Sudoeste 21 Sudoeste 0 1004.6 -- 38
2020-08-31 15:00:00 22.9 9 Sudoeste 24 Sudoeste 0 1005.2 -- 41
2020-08-31 14:00:00 21.7 11 Oeste 22 Oeste 0 1005.3 -- 49
2020-08-31 13:00:00 22.1 7 Oeste 13 Oeste 0 1004.9 -- 46
2020-08-31 12:00:00 19.4 3 Sudoeste 8 Oeste 0 1005.1 -- 59
2020-08-31 11:00:00 16.3 4 Noroeste 6 Noroeste 0 1004.9 -- 69
2020-08-31 10:00:00 13.9 3 Norte 7 Norte 0 1004.7 -- 77
2020-08-31 09:00:00 11.6 3 Sudeste 13 Este 0 1004.3 -- 83
2020-08-31 08:00:00 11.1 5 Este 15 Nordeste 0 1004 -- 81
2020-08-31 07:00:00 11 0 Calma 13 Nordeste 0 1003.7 -- 81
2020-08-31 06:00:00 11.6 0 Calma 15 Este 0 1003.8 -- 78
2020-08-31 05:00:00 12.1 3 Nordeste 15 Nordeste 0 1004 -- 76
2020-08-31 04:00:00 13.2 10 Nordeste 17 Este 0 1004.3 -- 73
2020-08-31 03:00:00 13.5 9 Nordeste 15 Este 0 1004.8 -- 72
2020-08-31 02:00:00 13.9 8 Nordeste 15 Nordeste 0 1004.8 -- 70
2020-08-31 01:00:00 14.7 8 Nordeste 17 Nordeste 0 1005.4 -- 67
2020-08-31 00:00:00 15.5 9 Nordeste 17 Norte 0 1005.5 -- 64
2020-08-30 23:00:00 15.9 4 Norte 13 Nordeste 0 1005.4 -- 68
2020-08-30 22:00:00 17.1 4 Norte 15 Noroeste 0 1004.7 -- 66
2020-08-30 21:00:00 18.8 8 Norte 30 Norte 0 1004.1 -- 61
2020-08-30 20:00:00 20.9 14 Noroeste 28 Noroeste 0 1003.5 -- 53
2020-08-30 19:00:00 22.2 14 Noroeste 29 Noroeste 0 1003.3 -- 49
2020-08-30 18:00:00 22.5 17 Noroeste 34 Noroeste 0 1003.3 -- 46
2020-08-30 17:00:00 23.2 12 Noroeste 30 Norte 0 1003.4 -- 41
2020-08-30 16:00:00 23.1 12 Norte 26 Noroeste 0 1004 -- 41
2020-08-30 15:00:00 22 13 Norte 35 Norte 0 1004.3 -- 43
2020-08-30 14:00:00 21.3 12 Norte 26 Nordeste 0 1004.6 -- 43
2020-08-30 13:00:00 20.6 6 Norte 26 Nordeste 0 1004.9 -- 49
2020-08-30 12:00:00 18.8 11 Norte 20 Noroeste 0 1005.1 -- 52
2020-08-30 11:00:00 16.7 8 Noroeste 17 Norte 0 1004.9 -- 63
2020-08-30 10:00:00 14.3 4 Norte 11 Nordeste 0 1004.7 -- 76
2020-08-30 09:00:00 11.8 6 Nordeste 13 Nordeste 0 1004.5 -- 83
2020-08-30 08:00:00 11.3 5 Nordeste 11 Nordeste 0 1004.5 -- 84
2020-08-30 07:00:00 11.3 3 Este 9 Oeste 0 1004.4 -- 85
2020-08-30 06:00:00 11 3 Noroeste 12 Nordeste 0 1004.3 -- 87
2020-08-30 05:00:00 11.6 4 Nordeste 12 Este 0 1004.4 -- 86
2020-08-30 04:00:00 11.8 4 Este 12 Nordeste 0 1004.4 -- 86
2020-08-30 03:00:00 12 3 Este 6 Noroeste 0 1004.6 -- 86
2020-08-30 02:00:00 12.5 2 Nordeste 6 Nordeste 0 1004.5 -- 84
2020-08-30 01:00:00 13 0 Calma 5 Sudeste 0 1004.4 -- 82
2020-08-30 00:00:00 14.1 3 Noroeste 12 Norte 0 1004 -- 76
2020-08-29 23:00:00 14.8 4 Este 19 Noroeste 0 1004 -- 71
2020-08-29 22:00:00 15.8 8 Norte 24 Norte 0 1003.3 -- 65
2020-08-29 21:00:00 17.7 7 Norte 33 Norte 0 1002.5 -- 52
2020-08-29 20:00:00 19.6 15 Norte 36 Norte 0 1002 -- 49
2020-08-29 19:00:00 21.2 16 Noroeste 27 Noroeste 0 1001.8 -- 49
2020-08-29 18:00:00 20.9 9 Norte 28 Norte 0 1001.9 -- 56
2020-08-29 17:00:00 18.7 11 Noroeste 40 Norte 0 1002 -- 68
2020-08-29 16:00:00 20.6 21 Noroeste 40 Noroeste 0 1001.7 -- 56
2020-08-29 15:00:00 20.2 15 Noroeste 29 Noroeste 0 1001.8 -- 54
2020-08-29 14:00:00 19.4 7 Nordeste 36 Noroeste 0.2 1001.7 -- 65
2020-08-29 13:00:00 18.9 14 Noroeste 30 Noroeste 0 1001.7 -- 63
2020-08-29 12:00:00 17.5 12 Noroeste 26 Norte 0 1001.6 -- 73
2020-08-29 11:00:00 16.7 6 Noroeste 10 Noroeste 0 1001.5 -- 78
2020-08-29 10:00:00 14.5 4 Noroeste 9 Norte 0 1001.4 -- 89
2020-08-29 09:00:00 13 0 Calma 5 Norte 0 1001.1 -- 92
2020-08-29 08:00:00 12.9 2 Este 6 Norte 0 1000.6 -- 92
2020-08-29 07:00:00 13.1 4 Norte 7 Norte 0 1000.4 -- 91
2020-08-29 06:00:00 13.5 2 Norte 7 Norte 0 1000.2 -- 88
2020-08-29 05:00:00 13.6 4 Nordeste 9 Nordeste 0 1000.6 -- 89
2020-08-29 04:00:00 13.1 4 Nordeste 10 Nordeste 0 1000.7 -- 88
2020-08-29 03:00:00 13.5 4 Nordeste 9 Este 0 1001.1 -- 86
2020-08-29 02:00:00 13.9 6 Este 15 Este 0 1001.3 -- 84
2020-08-29 01:00:00 15.1 4 Nordeste 6 Nordeste 0 1001.5 -- 78
2020-08-29 00:00:00 15.3 2 Nordeste 10 Noroeste 0 1001.6 -- 77
2020-08-28 23:00:00 15.4 3 Noroeste 12 Nordeste 0 1001.4 -- 73
2020-08-28 22:00:00 16.5 4 Nordeste 24 Noroeste 0 1001.3 -- 69
2020-08-28 21:00:00 17.9 9 Noroeste 30 Noroeste 0 1000.8 -- 64
2020-08-28 20:00:00 19.4 14 Noroeste 37 Noroeste 0 1000.7 -- 61
2020-08-28 19:00:00 20.1 24 Oeste 40 Noroeste 0 1000.7 -- 55
2020-08-28 18:00:00 21.3 16 Oeste 39 Oeste 0 1000.7 -- 55
2020-08-28 17:00:00 22.1 18 Noroeste 38 Noroeste 0 1000.9 -- 49
2020-08-28 16:00:00 21.1 17 Oeste 34 Oeste 0 1001.4 -- 60
2020-08-28 15:00:00 20.4 18 Noroeste 33 Oeste 0 1002 -- 57
2020-08-28 14:00:00 20.6 10 Oeste 22 Noroeste 0 1002.1 -- 61
2020-08-28 13:00:00 20.2 6 Oeste 18 Oeste 0 1002.5 -- 62
2020-08-28 12:00:00 19.5 11 Noroeste 19 Noroeste 0 1002.9 -- 68
2020-08-28 11:00:00 18.1 6 Noroeste 12 Norte 0 1003.1 -- 77
2020-08-28 10:00:00 15.7 3 Este 8 Este 0 1003.1 -- 89
2020-08-28 09:00:00 14.1 8 Este 10 Este 0 1002.9 -- 93
2020-08-28 08:00:00 14 4 Nordeste 8 Este 0 1003.1 -- 93
2020-08-28 07:00:00 14.2 3 Nordeste 8 Norte 0 1002.8 -- 90
2020-08-28 06:00:00 15 3 Nordeste 18 Noroeste 0 1002.9 -- 88
2020-08-28 05:00:00 15.9 6 Norte 14 Norte 0 1003.1 -- 89
2020-08-28 04:00:00 17.2 4 Nordeste 11 Noroeste 0 1003.1 -- 92
2020-08-28 03:00:00 18 5 Noroeste 14 Noroeste 0 1003.7 -- 94
2020-08-28 02:00:00 19.4 7 Oeste 13 Noroeste 0 1004 -- 97
2020-08-28 01:00:00 19.6 3 Sur 10 Sudoeste 0 1004.4 -- 97
2020-08-28 00:00:00 19.6 3 Sudoeste 10 Sudoeste 0.4 1004.7 -- 96
2020-08-27 23:00:00 19.7 6 Sudoeste 15 Sudoeste 0.4 1005.3 -- 95
2020-08-27 22:00:00 20.1 6 Sudoeste 17 Sudoeste 0 1005.2 -- 94
2020-08-27 21:00:00 21.1 8 Sudoeste 15 Sudoeste 0 1005.1 -- 87
2020-08-27 20:00:00 21.6 6 Sudoeste 20 Oeste 0 1005.2 -- 87
2020-08-27 19:00:00 22.1 6 Sudoeste 20 Sudoeste 0 1005.6 -- 84
2020-08-27 18:00:00 22.8 9 Sudoeste 24 Sudoeste 0 1006.1 -- 82
2020-08-27 17:00:00 23.2 10 Sudoeste 18 Sudoeste 0 1006.2 -- 78
2020-08-27 16:00:00 23.1 9 Sudoeste 18 Sudoeste 0 1006.6 -- 77
2020-08-27 15:00:00 21.9 14 Sudoeste 23 Sudoeste 0 1007.1 -- 85
2020-08-27 14:00:00 21.8 5 Sudoeste 17 Sudoeste 0 1007.3 -- 87
2020-08-27 13:00:00 21.3 11 Sudoeste 21 Sudoeste 0 1007.6 -- 87
2020-08-27 12:00:00 21.4 2 Noroeste 9 Oeste 0.2 1007.5 -- 90
2020-08-27 11:00:00 20.8 5 Oeste 9 Noroeste 0 1007.4 -- 89
2020-08-27 10:00:00 20 3 Norte 7 Sudeste 0 1007.1 -- 93
2020-08-27 09:00:00 19.5 4 Noroeste 6 Noroeste 0 1007 -- 94
2020-08-27 08:00:00 19.2 2 Noroeste 7 Este 0 1006.8 -- 95
2020-08-27 07:00:00 19.3 2 Este 8 Oeste 0 1006.9 -- 95
2020-08-27 06:00:00 19.4 6 Oeste 9 Oeste 0 1007.2 -- 95
2020-08-27 05:00:00 19.4 2 Nordeste 5 Este 0 1006.7 -- 95
2020-08-27 04:00:00 19.6 4 Este 6 Sudeste 0 1006.9 -- 95
2020-08-27 03:00:00 19.6 3 Sudoeste 6 Oeste 0 1007.3 -- 95
2020-08-27 02:00:00 19.7 4 Sudoeste 11 Sudoeste 0 1007.7 -- 95
2020-08-27 01:00:00 19.9 3 Sudoeste 8 Sudoeste 0 1007.7 -- 94
2020-08-27 00:00:00 20.2 4 Sudoeste 5 Sudoeste 0 1007.8 -- 93
2020-08-26 23:00:00 20.5 0 Calma 9 Oeste 0 1007.7 -- 92
2020-08-26 22:00:00 20.9 4 Oeste 12 Sudoeste 0 1007.5 -- 89
2020-08-26 21:00:00 21.1 9 Sudoeste 15 Sudoeste 0 1006.9 -- 88
2020-08-26 20:00:00 22.1 11 Oeste 21 Sudoeste 0 1006.6 -- 83
2020-08-26 19:00:00 24.3 8 Sudoeste 21 Sudoeste 0 1006.5 -- 75
2020-08-26 18:00:00 25.2 8 Sudoeste 21 Sudoeste 0 1006.3 -- 71
2020-08-26 17:00:00 25.5 10 Sudoeste 19 Sudoeste 0 1006.3 -- 69
2020-08-26 16:00:00 25.6 10 Sudoeste 21 Sudoeste 0 1006.6 -- 71
2020-08-26 15:00:00 25.8 13 Sudoeste 23 Sudoeste 0 1006.5 -- 70
2020-08-26 14:00:00 26 10 Sudoeste 17 Sudoeste 0 1006.5 -- 70
2020-08-26 13:00:00 25.2 8 Sudoeste 16 Sudoeste 0 1006.7 -- 72
2020-08-26 12:00:00 23.8 5 Oeste 8 Oeste 0 1006.7 -- 73
2020-08-26 11:00:00 22 3 Noroeste 8 Oeste 0 1006.5 -- 83
2020-08-26 10:00:00 19.8 4 Norte 8 Nordeste 0 1006.1 -- 87
2020-08-26 09:00:00 17.8 3 Norte 4 Norte 0 1005.7 -- 96
2020-08-26 08:00:00 17.6 5 Nordeste 10 Este 0 1005.2 -- 95
2020-08-26 07:00:00 18.1 4 Este 8 Este 0 1005 -- 95
2020-08-26 06:00:00 18.3 2 Norte 4 Sudeste 0 1005.1 -- 95
2020-08-26 05:00:00 18.3 2 Este 3 Sur 0 1005 -- 94
2020-08-26 04:00:00 18.4 2 Sur 4 Este 0 1005 -- 93
2020-08-26 03:00:00 18.9 3 Sudeste 6 Oeste 0 1005.2 -- 92
2020-08-26 02:00:00 19.3 3 Sur 4 Sur 0 1005.2 -- 90
2020-08-26 01:00:00 20.2 2 Sudeste 6 Oeste 0 1005.1 -- 87
2020-08-26 00:00:00 20.5 3 Noroeste 8 Noroeste 0 1005.5 -- 86
2020-08-25 23:00:00 20.7 3 Norte 13 Norte 0 1005.5 -- 84
2020-08-25 22:00:00 21.5 5 Noroeste 10 Noroeste 0 1005 -- 80
2020-08-25 21:00:00 22.7 5 Noroeste 13 Oeste 0 1004.4 -- 74
2020-08-25 20:00:00 24.3 8 Noroeste 20 Noroeste 0 1004.1 -- 68
2020-08-25 19:00:00 24.5 10 Oeste 17 Oeste 0 1004.1 -- 68
2020-08-25 18:00:00 25 8 Oeste 18 Oeste 0 1004 -- 66
2020-08-25 17:00:00 25.1 11 Oeste 23 Sudoeste 0 1003.8 -- 65
2020-08-25 16:00:00 25.6 11 Sudoeste 18 Oeste 0 1003.9 -- 61
2020-08-25 15:00:00 25.4 7 Oeste 15 Sudoeste 0 1004.1 -- 63
2020-08-25 14:00:00 24 4 Oeste 11 Noroeste 0 1004.3 -- 66
2020-08-25 13:00:00 23.1 4 Oeste 10 Oeste 0 1004.2 -- 67
2020-08-25 12:00:00 21.4 4 Sudoeste 9 Sudoeste 0 1004 -- 66
2020-08-25 11:00:00 18.7 3 Este 10 Este 0 1003.8 -- 72
2020-08-25 10:00:00 15.9 6 Nordeste 13 Nordeste 0 1003.5 -- 71
2020-08-25 09:00:00 14.2 3 Nordeste 16 Nordeste 0 1003.1 -- 78
2020-08-25 08:00:00 13.3 3 Este 15 Nordeste 0 1002.7 -- 76
2020-08-25 07:00:00 13.2 4 Nordeste 11 Este 0 1002.4 -- 77
2020-08-25 06:00:00 13.7 7 Nordeste 19 Nordeste 0 1002.4 -- 75
2020-08-25 05:00:00 13.6 10 Nordeste 15 Nordeste 0 1002.3 -- 81
2020-08-25 04:00:00 14.2 7 Nordeste 13 Nordeste 0 1002.3 -- 79
2020-08-25 03:00:00 14.5 6 Este 13 Este 0 1002.3 -- 81
2020-08-25 02:00:00 16 5 Nordeste 10 Nordeste 0 1002.3 -- 83
2020-08-25 01:00:00 17.2 6 Este 9 Este 0 1002.3 -- 89
2020-08-25 00:00:00 17.9 0 Calma 9 Sudoeste 0 1002.3 -- 91
2020-08-24 23:00:00 18.3 3 Sur 13 Sur 0 1002.4 -- 88
2020-08-24 22:00:00 20 5 Sudoeste 11 Sudoeste 0 1002 -- 79
2020-08-24 21:00:00 23.1 3 Sudoeste 12 Sudoeste 0 1001.4 -- 53
2020-08-24 20:00:00 24.9 10 Sudoeste 18 Sudoeste 0 1001.2 -- 47
2020-08-24 19:00:00 25.8 9 Sudoeste 18 Sudoeste 0 1001.3 -- 48
2020-08-24 18:00:00 28.1 7 Sudoeste 21 Oeste 0 1001.5 -- 46
2020-08-24 17:00:00 27.5 10 Sudoeste 19 Oeste 0 1001.7 -- 48
2020-08-24 16:00:00 28.7 10 Sudoeste 17 Sudoeste 0 1002.1 -- 47
2020-08-24 15:00:00 28.1 5 Sudoeste 14 Sudoeste 0 1002.5 -- 46
2020-08-24 14:00:00 27.2 7 Oeste 14 Sudoeste 0 1002.9 -- 52
2020-08-24 13:00:00 25.4 4 Sudoeste 9 Sudoeste 0 1003.2 -- 57
2020-08-24 12:00:00 23.2 3 Sur 8 Sur 0 1003.6 -- 65
2020-08-24 11:00:00 19.9 3 Sudoeste 6 Sudoeste 0 1003.9 -- 72
2020-08-24 10:00:00 17.5 0 Calma 3 Noroeste 0 1003.9 -- 80
2020-08-24 09:00:00 14.6 0 Calma 4 Sudeste 0 1004.1 -- 92
2020-08-24 08:00:00 14.1 3 Este 7 Este 0 1004.2 -- 89
2020-08-24 07:00:00 14.7 2 Sudeste 3 Sudeste 0 1004.8 -- 88
2020-08-24 06:00:00 15.5 3 Norte 11 Norte 0 1004.7 -- 85
2020-08-24 05:00:00 16.3 6 Norte 10 Norte 0 1004.9 -- 84
2020-08-24 04:00:00 16.9 4 Noroeste 10 Nordeste 0 1005.4 -- 82
2020-08-24 03:00:00 18.7 6 Nordeste 18 Norte 0 1006 -- 71
2020-08-24 02:00:00 19.3 4 Noroeste 18 Nordeste 0 1006.3 -- 75
2020-08-24 01:00:00 20.3 5 Norte 18 Norte 0 1006.4 -- 72
2020-08-24 00:00:00 20.8 9 Nordeste 19 Nordeste 0 1006.7 -- 74
2020-08-23 23:00:00 21.3 6 Norte 12 Norte 0 1007 -- 72
2020-08-23 22:00:00 22.2 6 Noroeste 19 Norte 0 1006.7 -- 70
2020-08-23 21:00:00 24.8 10 Noroeste 25 Noroeste 0 1006.5 -- 63
2020-08-23 20:00:00 27 13 Noroeste 26 Noroeste 0 1006.1 -- 55
2020-08-23 19:00:00 26.9 9 Oeste 19 Sudoeste 0 1006.4 -- 55
2020-08-23 18:00:00 26.9 10 Sudoeste 21 Sudoeste 0 1006.5 -- 52
2020-08-23 17:00:00 26.2 12 Sudoeste 21 Sudoeste 0 1007.1 -- 56
2020-08-23 16:00:00 26.2 12 Sudoeste 22 Sudoeste 0 1007.8 -- 55
2020-08-23 15:00:00 26.2 9 Sudoeste 16 Sudoeste 0 1008.3 -- 61
2020-08-23 14:00:00 25 7 Sudoeste 15 Sudoeste 0 1008.6 -- 57
2020-08-23 13:00:00 23.8 7 Sudoeste 13 Sudoeste 0 1009.2 -- 57
2020-08-23 12:00:00 22.2 4 Sur 8 Sudoeste 0 1009.5 -- 66
2020-08-23 11:00:00 19.4 3 Sur 6 Sur 0 1009.9 -- 72
2020-08-23 10:00:00 17 4 Noroeste 6 Norte 0 1010 -- 82
2020-08-23 09:00:00 14.3 2 Norte 15 Nordeste 0 1009.9 -- 90
2020-08-23 08:00:00 14.4 7 Nordeste 17 Nordeste 0 1009.5 -- 87
2020-08-23 07:00:00 14.1 6 Este 11 Este 0 1009.4 -- 90
2020-08-23 06:00:00 15 6 Nordeste 13 Nordeste 0 1009.6 -- 87
2020-08-23 05:00:00 14.8 6 Nordeste 8 Nordeste 0 1010 -- 89
2020-08-23 04:00:00 15.1 3 Nordeste 6 Nordeste 0 1010.3 -- 89
2020-08-23 03:00:00 15.5 3 Nordeste 5 Norte 0 1010.4 -- 87
2020-08-23 02:00:00 16 3 Nordeste 7 Este 0 1010.8 -- 87
2020-08-23 01:00:00 16.6 4 Este 8 Este 0 1010.9 -- 89
2020-08-23 00:00:00 17.1 4 Este 6 Noroeste 0 1011.3 -- 88